Aeroporto :
LOGIN :

Iscrizione | Disclaimer

   EN    FR    IT 

 










Sommario :    VFR   VFR Marginale   IFR   IFR Intensivo   IFR Molto Intensivo
Visibilità : 
Base nubi : 
>= 8 km
>= 3000ft
5 / 8 km
1000 / 3000 ft
1500m / 5 km
500 / 1000 ft
800 / 1500m
200 / 500 ft
< 800m
< 200 ft
Simboli :   Temporali  Nebbia  Neve Forte  Precipitazioni Forti  Vento > 20 kt
SIGMETs :   Varie  Temporali  Ghiacco  Turbolenza  Onda orograficha  Ceneri Vulcaniche






- Altitudine del aeroporto : 1465 ft


LSMP - Payerne

ULTIMO METAR :
  • 182350Z AUTO 21003KT 9999NDV NCD 18/16 Q1021 RMK

METARs OBSOLETI :
  • 182320Z AUTO 00000KT 9999NDV NCD 19/16 Q1021 RMK
  • 182250Z AUTO 16001KT 9999NDV NCD 19/17 Q1021 RMK
  • 182220Z AUTO 19004KT 9999NDV NCD 20/17 Q1021 RMK
  • 182150Z AUTO 20003KT 170V230 9999NDV NCD 20/17 Q1021 RMK
  • 182120Z AUTO VRB02KT 9999NDV NCD 21/17 Q1021 RMK
  • 182050Z AUTO VRB02KT 9999NDV NCD 21/17 Q1021 RMK
  • 182020Z AUTO 22002KT 9999NDV NCD 22/17 Q1021 RMK
  • 181950Z AUTO 00000KT 9999NDV NCD 23/18 Q1020 RMK
  • 181920Z AUTO 00000KT 9999NDV NCD 24/18 Q1020 RMK
  • 181850Z AUTO 02002KT 9999NDV NCD 26/18 Q1020 RMK

Previsioni scadute.



MetMap, La meteo Aeronautica in un colpo d'occhio ! - Copyright ORBIFLY Dicembre 2007 - Disclaimer

ORBIFLY MET'MAP TEAM :

Programmazione e sviluppo : Alexandra Zaïnal
Concezione : Baudouin d'Aumeries
Supporto tecnico e logistico : Manuel Goepfert
Aiuto : Marc-Olivier Méhu
Aiuto per la traduzione : Arnaldo La Scala




FONTI E CREDITI :

   NOAA